Time;durP1;ratioP1;P1;durP2;ratioP2;P2;SDS_P1;SDS_P2;PMS_P1;PMS_P2;Temp;Humidity;BMP_temperature;BMP_pressure;BME280_temperature;BME280_humidity;BME280_pressure;Samples;Min_cycle;Max_cycle;Signal;HPM_P1;HPM_P2
2022/03/06 00:06:30;;;;;;;7.18;4.18;;;;;;;;;;20910435;28;20049;-56
2022/03/06 00:16:32;;;;;;;2.63;0.82;;;;;;;;;;20909672;28;20139;-55
2022/03/06 00:26:34;;;;;;;1.60;0.85;;;;;;;;;;20910016;28;20076;-53
2022/03/06 00:36:37;;;;;;;1.50;0.70;;;;;;;;;;20925760;28;20451;-57
2022/03/06 00:46:39;;;;;;;2.13;0.77;;;;;;;;;;20920940;28;20052;-53
2022/03/06 00:56:40;;;;;;;1.67;0.80;;;;;;;;;;20923914;28;20059;-51
2022/03/06 01:06:42;;;;;;;1.75;0.60;;;;;;;;;;20922671;28;20138;-54
2022/03/06 01:16:44;;;;;;;1.45;0.80;;;;;;;;;;20921486;28;20049;-53
2022/03/06 01:26:46;;;;;;;3.00;0.90;;;;;;;;;;20921193;28;20045;-53
2022/03/06 01:36:48;;;;;;;4.90;1.23;;;;;;;;;;20935187;28;20045;-52
2022/03/06 01:46:50;;;;;;;2.55;0.98;;;;;;;;;;20919610;28;20045;-52
2022/03/06 01:56:52;;;;;;;1.75;1.00;;;;;;;;;;20920028;28;20170;-53
2022/03/06 02:06:54;;;;;;;1.95;1.00;;;;;;;;;;20918379;28;20126;-53
2022/03/06 02:16:55;;;;;;;2.60;0.90;;;;;;;;;;20916819;28;20048;-55
2022/03/06 02:26:59;;;;;;;2.15;0.88;;;;;;;;;;20917514;28;20064;-53
2022/03/06 02:37:01;;;;;;;1.40;0.70;;;;;;;;;;20915541;28;20055;-52
2022/03/06 02:47:04;;;;;;;2.78;0.90;;;;;;;;;;20914881;28;20416;-52
2022/03/06 02:57:11;;;;;;;2.90;1.10;;;;;;;;;;20914129;28;20045;-53
2022/03/06 03:07:15;;;;;;;3.92;1.08;;;;;;;;;;20914152;28;20049;-55
2022/03/06 03:17:37;;;;;;;1.10;0.80;;;;;;;;;;20913966;28;20413;-54
2022/03/06 03:27:56;;;;;;;4.20;1.05;;;;;;;;;;20913267;28;20358;-52
2022/03/06 03:38:18;;;;;;;2.28;1.25;;;;;;;;;;20911656;28;20109;-51
2022/03/06 03:48:39;;;;;;;3.83;1.27;;;;;;;;;;20911972;28;20041;-51
2022/03/06 03:59:01;;;;;;;3.25;1.25;;;;;;;;;;20911254;28;20045;-51
2022/03/06 04:09:22;;;;;;;4.15;1.40;;;;;;;;;;20911532;28;20041;-53
2022/03/06 04:19:44;;;;;;;2.03;0.93;;;;;;;;;;20919557;28;20057;-54
2022/03/06 04:30:06;;;;;;;3.22;1.10;;;;;;;;;;20926847;28;20119;-53
2022/03/06 04:40:27;;;;;;;1.73;0.90;;;;;;;;;;20925804;28;20072;-52
2022/03/06 04:50:49;;;;;;;2.80;1.15;;;;;;;;;;20924146;28;20162;-51
2022/03/06 05:01:10;;;;;;;3.65;1.38;;;;;;;;;;20923038;28;20060;-52
2022/03/06 05:11:17;;;;;;;3.30;1.10;;;;;;;;;;20922878;28;20123;-53
2022/03/06 05:21:24;;;;;;;2.42;1.30;;;;;;;;;;20921486;28;20143;-54
2022/03/06 05:31:29;;;;;;;2.97;1.00;;;;;;;;;;20920460;28;20045;-52
2022/03/06 05:41:36;;;;;;;2.22;1.17;;;;;;;;;;20920210;28;20172;-55
2022/03/06 05:51:41;;;;;;;3.03;1.30;;;;;;;;;;20919408;28;20040;-53
2022/03/06 06:01:45;;;;;;;2.17;1.10;;;;;;;;;;20920166;28;20056;-52
2022/03/06 06:11:49;;;;;;;2.40;1.15;;;;;;;;;;20918314;28;20622;-54
2022/03/06 06:21:51;;;;;;;5.40;1.08;;;;;;;;;;20917042;28;20513;-52
2022/03/06 06:31:53;;;;;;;4.13;1.40;;;;;;;;;;20916351;28;20072;-53
2022/03/06 06:41:55;;;;;;;6.97;1.95;;;;;;;;;;20915780;28;20481;-54
2022/03/06 06:51:58;;;;;;;4.72;1.48;;;;;;;;;;20914936;28;20150;-54
2022/03/06 07:02:00;;;;;;;2.95;1.55;;;;;;;;;;20914382;28;20481;-57
2022/03/06 07:12:03;;;;;;;4.25;1.17;;;;;;;;;;20913869;28;20140;-52
2022/03/06 07:22:05;;;;;;;2.75;1.30;;;;;;;;;;20913018;28;20132;-55
2022/03/06 07:32:07;;;;;;;3.22;1.65;;;;;;;;;;20910926;28;20049;-54
2022/03/06 07:42:09;;;;;;;3.30;1.30;;;;;;;;;;20912306;28;20465;-55
2022/03/06 07:52:13;;;;;;;3.38;1.67;;;;;;;;;;20918554;28;20053;-54
2022/03/06 08:02:15;;;;;;;3.33;1.40;;;;;;;;;;20927679;28;20131;-52
2022/03/06 08:12:17;;;;;;;8.27;1.95;;;;;;;;;;20927049;28;20063;-52
2022/03/06 08:22:21;;;;;;;2.22;1.40;;;;;;;;;;20926315;28;20067;-55
2022/03/06 08:32:24;;;;;;;3.80;1.88;;;;;;;;;;20925119;28;20371;-54
2022/03/06 08:42:25;;;;;;;5.22;1.50;;;;;;;;;;20924262;28;20060;-51
2022/03/06 08:52:28;;;;;;;3.25;1.77;;;;;;;;;;20923660;28;20041;-55
2022/03/06 09:02:29;;;;;;;4.15;1.52;;;;;;;;;;20920615;28;20045;-54
2022/03/06 09:12:32;;;;;;;2.75;1.60;;;;;;;;;;20921844;28;20103;-57
2022/03/06 09:22:35;;;;;;;3.03;1.42;;;;;;;;;;20920858;28;20144;-53
2022/03/06 09:32:37;;;;;;;4.57;1.83;;;;;;;;;;20920332;28;20052;-54
2022/03/06 09:42:39;;;;;;;2.65;1.38;;;;;;;;;;20919615;28;20092;-55
2022/03/06 09:52:41;;;;;;;3.00;1.30;;;;;;;;;;20934074;28;20045;-54
2022/03/06 10:02:53;;;;;;;2.65;1.38;;;;;;;;;;20917771;28;20148;-53
2022/03/06 10:12:56;;;;;;;3.15;1.67;;;;;;;;;;20917476;28;20409;-54
2022/03/06 10:22:58;;;;;;;3.92;1.60;;;;;;;;;;20932032;28;20048;-54
2022/03/06 10:33:12;;;;;;;3.72;1.65;;;;;;;;;;20914570;28;20499;-54
2022/03/06 10:43:22;;;;;;;3.20;1.45;;;;;;;;;;20914442;28;20507;-54
2022/03/06 10:53:25;;;;;;;5.70;1.50;;;;;;;;;;20913817;28;20474;-55
2022/03/06 11:03:27;;;;;;;2.85;1.38;;;;;;;;;;20913433;28;20053;-59
2022/03/06 11:13:29;;;;;;;5.53;1.33;;;;;;;;;;20913150;28;20049;-54
2022/03/06 11:23:39;;;;;;;2.85;1.30;;;;;;;;;;20911487;28;20057;-56
2022/03/06 11:33:42;;;;;;;2.83;1.42;;;;;;;;;;20911323;28;20476;-54
2022/03/06 11:43:47;;;;;;;3.53;1.40;;;;;;;;;;20912123;28;20053;-54
2022/03/06 11:53:50;;;;;;;3.90;1.90;;;;;;;;;;20911075;28;20054;-55
2022/03/06 12:04:01;;;;;;;2.25;1.20;;;;;;;;;;20909023;28;20088;-52
2022/03/06 12:14:18;;;;;;;3.55;1.67;;;;;;;;;;20908731;28;20120;-52
2022/03/06 12:24:29;;;;;;;5.13;1.35;;;;;;;;;;20908938;28;20064;-54
2022/03/06 12:34:36;;;;;;;3.22;1.58;;;;;;;;;;20908006;28;20053;-52
2022/03/06 12:44:44;;;;;;;3.03;1.77;;;;;;;;;;20922754;28;20053;-51
2022/03/06 12:54:47;;;;;;;4.72;1.80;;;;;;;;;;20924666;28;20049;-53
2022/03/06 13:04:50;;;;;;;4.07;1.98;;;;;;;;;;20922890;28;20202;-53
2022/03/06 13:14:52;;;;;;;3.85;2.40;;;;;;;;;;20921183;28;20095;-53
2022/03/06 13:24:57;;;;;;;4.13;2.58;;;;;;;;;;20920113;28;20056;-54
2022/03/06 13:35:00;;;;;;;4.00;2.50;;;;;;;;;;20921051;28;20048;-54
2022/03/06 13:45:04;;;;;;;5.53;3.33;;;;;;;;;;20920155;28;20056;-56
2022/03/06 13:55:10;;;;;;;3.33;2.30;;;;;;;;;;20918784;28;20044;-53
2022/03/06 14:05:12;;;;;;;9.95;3.70;;;;;;;;;;20918797;28;20060;-52
2022/03/06 14:15:24;;;;;;;4.35;3.55;;;;;;;;;;20916943;28;20049;-52
2022/03/06 14:25:29;;;;;;;5.25;3.20;;;;;;;;;;20916687;28;20056;-53
2022/03/06 14:35:31;;;;;;;3.90;2.57;;;;;;;;;;20916121;28;20071;-55
2022/03/06 14:45:34;;;;;;;4.22;2.35;;;;;;;;;;20915546;28;20781;-53
2022/03/06 14:55:35;;;;;;;4.13;2.30;;;;;;;;;;20914387;28;20049;-53
2022/03/06 15:05:37;;;;;;;3.15;2.03;;;;;;;;;;20912881;28;20064;-52
2022/03/06 15:15:39;;;;;;;3.75;2.25;;;;;;;;;;20913229;28;20087;-55
2022/03/06 15:25:42;;;;;;;6.05;2.65;;;;;;;;;;20912691;28;20099;-54
2022/03/06 15:35:44;;;;;;;4.47;2.50;;;;;;;;;;20912252;28;20045;-50
2022/03/06 15:45:45;;;;;;;3.72;2.20;;;;;;;;;;20911580;28;20477;-51
2022/03/06 15:55:47;;;;;;;3.72;2.53;;;;;;;;;;20911951;28;20485;-51
2022/03/06 16:05:49;;;;;;;5.10;2.25;;;;;;;;;;20910966;28;20052;-51
2022/03/06 16:15:51;;;;;;;3.42;2.00;;;;;;;;;;20920783;28;20087;-52
2022/03/06 16:25:52;;;;;;;5.93;3.42;;;;;;;;;;20926104;28;20096;-53
2022/03/06 16:35:54;;;;;;;4.97;3.17;;;;;;;;;;20925476;28;20049;-52
2022/03/06 16:45:57;;;;;;;6.15;3.70;;;;;;;;;;20922254;28;20060;-51
2022/03/06 16:55:59;;;;;;;5.18;2.72;;;;;;;;;;20923277;28;20179;-53
2022/03/06 17:06:02;;;;;;;4.78;2.58;;;;;;;;;;20922059;28;20405;-52
2022/03/06 17:16:04;;;;;;;4.10;2.67;;;;;;;;;;20922186;28;20056;-52
2022/03/06 17:26:06;;;;;;;4.85;2.72;;;;;;;;;;20920381;28;20045;-53
2022/03/06 17:36:08;;;;;;;4.55;2.50;;;;;;;;;;20919780;28;20048;-53
2022/03/06 17:46:10;;;;;;;7.05;4.93;;;;;;;;;;20919165;28;20053;-53
2022/03/06 17:56:11;;;;;;;15.00;10.05;;;;;;;;;;20918658;28;20131;-55
2022/03/06 18:06:13;;;;;;;5.22;3.30;;;;;;;;;;20918325;28;20489;-54
2022/03/06 18:16:16;;;;;;;4.45;3.10;;;;;;;;;;20916907;28;20131;-54
2022/03/06 18:26:20;;;;;;;5.80;3.67;;;;;;;;;;20915615;28;20060;-53
2022/03/06 18:36:21;;;;;;;8.55;5.47;;;;;;;;;;20915043;28;20083;-54
2022/03/06 18:46:23;;;;;;;6.57;4.57;;;;;;;;;;20914823;28;20056;-54
2022/03/06 18:56:25;;;;;;;4.30;3.03;;;;;;;;;;20915638;28;20051;-52
2022/03/06 19:06:27;;;;;;;6.57;3.83;;;;;;;;;;20913472;28;20049;-53
2022/03/06 19:16:29;;;;;;;4.45;3.13;;;;;;;;;;20912118;28;20140;-56
2022/03/06 19:26:31;;;;;;;6.63;4.15;;;;;;;;;;20912401;28;20536;-57
2022/03/06 19:36:33;;;;;;;6.70;4.45;;;;;;;;;;20911923;28;20049;-56
2022/03/06 19:46:35;;;;;;;5.32;3.90;;;;;;;;;;20915311;28;20052;-54
2022/03/06 19:56:37;;;;;;;6.07;4.15;;;;;;;;;;20928395;28;20053;-55
2022/03/06 20:06:39;;;;;;;5.53;4.05;;;;;;;;;;20927537;28;20095;-54
2022/03/06 20:16:41;;;;;;;6.25;4.50;;;;;;;;;;20926360;28;20079;-54
2022/03/06 20:26:45;;;;;;;6.18;4.25;;;;;;;;;;20923505;28;20130;-55
2022/03/06 20:36:47;;;;;;;6.20;4.05;;;;;;;;;;20924384;28;20041;-55
2022/03/06 20:46:49;;;;;;;7.22;4.25;;;;;;;;;;20924544;28;20145;-55
2022/03/06 20:56:51;;;;;;;5.43;3.00;;;;;;;;;;20923641;28;20041;-52
2022/03/06 21:06:53;;;;;;;7.15;4.05;;;;;;;;;;20923692;28;20049;-54
2022/03/06 21:16:55;;;;;;;4.93;2.95;;;;;;;;;;20922834;28;20057;-53
2022/03/06 21:26:58;;;;;;;7.57;4.82;;;;;;;;;;20922693;28;20052;-53
2022/03/06 21:37:00;;;;;;;6.47;3.97;;;;;;;;;;20921186;28;20511;-53
2022/03/06 21:47:02;;;;;;;7.82;4.35;;;;;;;;;;20920159;28;20575;-53
2022/03/06 21:57:04;;;;;;;6.35;4.57;;;;;;;;;;20919379;28;20045;-53
2022/03/06 22:07:05;;;;;;;6.60;4.50;;;;;;;;;;20918120;28;20045;-53
2022/03/06 22:17:08;;;;;;;6.85;4.82;;;;;;;;;;20917063;28;20557;-53
2022/03/06 22:27:11;;;;;;;6.40;5.03;;;;;;;;;;20916641;28;20049;-53
2022/03/06 22:37:12;;;;;;;4.65;3.97;;;;;;;;;;20915376;28;20051;-53
2022/03/06 22:47:14;;;;;;;5.40;3.35;;;;;;;;;;20916343;28;20106;-54
2022/03/06 22:57:15;;;;;;;3.67;2.70;;;;;;;;;;20915504;28;20110;-54
2022/03/06 23:07:18;;;;;;;5.68;3.80;;;;;;;;;;20913447;28;20067;-52
2022/03/06 23:17:21;;;;;;;5.43;3.28;;;;;;;;;;20913632;28;20056;-52
2022/03/06 23:27:23;;;;;;;5.22;3.65;;;;;;;;;;20912857;28;20051;-56
2022/03/06 23:37:25;;;;;;;7.72;4.03;;;;;;;;;;20912527;28;20045;-54
2022/03/06 23:47:27;;;;;;;5.72;3.53;;;;;;;;;;20912371;28;20061;-53
2022/03/06 23:57:29;;;;;;;5.80;3.80;;;;;;;;;;20911700;28;20052;-52
